sensor_id;sensor_type;location;lat;lon;timestamp;pressure;altitude;pressure_sealevel;temperature;humidity
58955;BME280;45815;52.334;5.024;2023-07-09T00:01:56;101678.00;;;23.81;100.00
58955;BME280;45815;52.334;5.024;2023-07-09T00:04:21;101694.06;;;23.83;100.00
58955;BME280;45815;52.334;5.024;2023-07-09T00:06:47;101682.59;;;23.76;100.00
58955;BME280;45815;52.334;5.024;2023-07-09T00:09:15;101688.84;;;23.76;100.00
58955;BME280;45815;52.334;5.024;2023-07-09T00:11:41;101689.75;;;23.75;100.00
58955;BME280;45815;52.334;5.024;2023-07-09T00:14:12;101703.19;;;23.74;100.00
58955;BME280;45815;52.334;5.024;2023-07-09T00:16:39;101698.81;;;23.68;100.00
58955;BME280;45815;52.334;5.024;2023-07-09T00:19:11;101690.97;;;23.59;100.00
58955;BME280;45815;52.334;5.024;2023-07-09T00:21:39;101706.94;;;23.65;100.00
58955;BME280;45815;52.334;5.024;2023-07-09T00:24:06;101706.09;;;23.63;100.00
58955;BME280;45815;52.334;5.024;2023-07-09T00:26:32;101706.16;;;23.60;100.00
58955;BME280;45815;52.334;5.024;2023-07-09T00:28:59;101703.50;;;23.58;100.00
58955;BME280;45815;52.334;5.024;2023-07-09T00:31:25;101709.81;;;23.56;100.00
58955;BME280;45815;52.334;5.024;2023-07-09T00:33:52;101704.50;;;23.53;100.00
58955;BME280;45815;52.334;5.024;2023-07-09T00:36:28;101702.94;;;23.43;100.00
58955;BME280;45815;52.334;5.024;2023-07-09T00:38:55;101714.41;;;23.49;100.00
58955;BME280;45815;52.334;5.024;2023-07-09T00:41:35;101711.81;;;23.46;100.00
58955;BME280;45815;52.334;5.024;2023-07-09T00:44:29;101713.84;;;23.33;100.00
58955;BME280;45815;52.334;5.024;2023-07-09T00:49:34;101722.66;;;23.38;100.00
58955;BME280;45815;52.334;5.024;2023-07-09T00:54:45;101731.63;;;23.37;100.00
58955;BME280;45815;52.334;5.024;2023-07-09T00:57:17;101728.97;;;23.36;100.00
58955;BME280;45815;52.334;5.024;2023-07-09T00:59:51;101730.75;;;23.35;100.00
58955;BME280;45815;52.334;5.024;2023-07-09T01:02:19;101713.91;;;23.30;100.00
58955;BME280;45815;52.334;5.024;2023-07-09T01:04:51;101723.59;;;23.37;100.00
58955;BME280;45815;52.334;5.024;2023-07-09T01:07:19;101722.72;;;23.35;100.00
58955;BME280;45815;52.334;5.024;2023-07-09T01:09:47;101728.09;;;23.35;100.00
58955;BME280;45815;52.334;5.024;2023-07-09T01:12:14;101720.97;;;23.34;100.00
58955;BME280;45815;52.334;5.024;2023-07-09T01:14:42;101723.69;;;23.33;100.00
58955;BME280;45815;52.334;5.024;2023-07-09T01:17:09;101709.63;;;23.20;100.00
58955;BME280;45815;52.334;5.024;2023-07-09T01:19:40;101723.75;;;23.28;100.00
58955;BME280;45815;52.334;5.024;2023-07-09T01:22:15;101722.91;;;23.26;100.00
58955;BME280;45815;52.334;5.024;2023-07-09T01:24:59;101716.78;;;23.20;100.00
58955;BME280;45815;52.334;5.024;2023-07-09T01:27:34;101720.31;;;23.23;100.00
58955;BME280;45815;52.334;5.024;2023-07-09T01:30:03;101723.94;;;23.21;100.00
58955;BME280;45815;52.334;5.024;2023-07-09T01:32:31;101728.44;;;23.17;100.00
58955;BME280;45815;52.334;5.024;2023-07-09T01:35:00;101715.22;;;23.09;100.00
58955;BME280;45815;52.334;5.024;2023-07-09T01:37:31;101725.84;;;23.14;100.00
58955;BME280;45815;52.334;5.024;2023-07-09T01:39:57;101703.72;;;23.03;100.00
58955;BME280;45815;52.334;5.024;2023-07-09T01:42:25;101724.09;;;23.11;100.00
58955;BME280;45815;52.334;5.024;2023-07-09T01:44:52;101725.03;;;23.09;100.00
58955;BME280;45815;52.334;5.024;2023-07-09T01:47:19;101728.66;;;23.06;100.00
58955;BME280;45815;52.334;5.024;2023-07-09T01:49:45;101731.34;;;23.05;100.00
58955;BME280;45815;52.334;5.024;2023-07-09T01:52:14;101731.38;;;23.03;100.00
58955;BME280;45815;52.334;5.024;2023-07-09T01:54:41;101734.97;;;23.02;100.00
58955;BME280;45815;52.334;5.024;2023-07-09T01:59:53;101735.91;;;22.96;100.00
58955;BME280;45815;52.334;5.024;2023-07-09T02:02:22;101732.41;;;22.94;100.00
58955;BME280;45815;52.334;5.024;2023-07-09T02:04:50;101738.66;;;22.93;100.00
58955;BME280;45815;52.334;5.024;2023-07-09T02:07:17;101740.47;;;22.93;100.00
58955;BME280;45815;52.334;5.024;2023-07-09T02:09:44;101736.06;;;22.90;100.00
58955;BME280;45815;52.334;5.024;2023-07-09T02:12:10;101733.41;;;22.89;100.00
58955;BME280;45815;52.334;5.024;2023-07-09T02:14:38;101729.84;;;22.87;100.00
58955;BME280;45815;52.334;5.024;2023-07-09T02:17:04;101738.81;;;22.84;100.00
58955;BME280;45815;52.334;5.024;2023-07-09T02:19:30;101744.19;;;22.83;100.00
58955;BME280;45815;52.334;5.024;2023-07-09T02:21:57;101738.03;;;22.79;100.00
58955;BME280;45815;52.334;5.024;2023-07-09T02:24:23;101744.31;;;22.78;100.00
58955;BME280;45815;52.334;5.024;2023-07-09T02:26:51;101748.81;;;22.76;100.00
58955;BME280;45815;52.334;5.024;2023-07-09T02:29:17;101740.78;;;22.74;100.00
58955;BME280;45815;52.334;5.024;2023-07-09T02:31:43;101743.53;;;22.71;100.00
58955;BME280;45815;52.334;5.024;2023-07-09T02:34:08;101748.03;;;22.69;100.00
58955;BME280;45815;52.334;5.024;2023-07-09T02:36:34;101746.28;;;22.65;100.00
58955;BME280;45815;52.334;5.024;2023-07-09T02:38:59;101740.06;;;22.65;100.00
58955;BME280;45815;52.334;5.024;2023-07-09T02:41:25;101744.56;;;22.61;100.00
58955;BME280;45815;52.334;5.024;2023-07-09T02:43:50;101740.16;;;22.59;100.00
58955;BME280;45815;52.334;5.024;2023-07-09T02:46:16;101722.44;;;22.50;100.00
58955;BME280;45815;52.334;5.024;2023-07-09T02:48:41;101728.66;;;22.53;100.00
58955;BME280;45815;52.334;5.024;2023-07-09T02:51:08;101728.66;;;22.52;100.00
58955;BME280;45815;52.334;5.024;2023-07-09T02:53:33;101727.84;;;22.48;100.00
58955;BME280;45815;52.334;5.024;2023-07-09T02:55:59;101707.66;;;22.29;100.00
58955;BME280;45815;52.334;5.024;2023-07-09T02:58:27;101738.59;;;22.45;100.00
58955;BME280;45815;52.334;5.024;2023-07-09T03:00:53;101735.94;;;22.45;100.00
58955;BME280;45815;52.334;5.024;2023-07-09T03:03:19;101745.78;;;22.43;100.00
58955;BME280;45815;52.334;5.024;2023-07-09T03:05:46;101744.88;;;22.43;100.00
58955;BME280;45815;52.334;5.024;2023-07-09T03:08:12;101751.16;;;22.40;100.00
58955;BME280;45815;52.334;5.024;2023-07-09T03:10:38;101745.81;;;22.40;100.00
58955;BME280;45815;52.334;5.024;2023-07-09T03:13:04;101749.41;;;22.39;100.00
58955;BME280;45815;52.334;5.024;2023-07-09T03:15:30;101747.59;;;22.38;100.00
58955;BME280;45815;52.334;5.024;2023-07-09T03:17:56;101748.53;;;22.37;100.00
58955;BME280;45815;52.334;5.024;2023-07-09T03:20:22;101749.47;;;22.36;100.00
58955;BME280;45815;52.334;5.024;2023-07-09T03:22:47;101748.59;;;22.34;100.00
58955;BME280;45815;52.334;5.024;2023-07-09T03:25:13;101756.63;;;22.31;100.00
58955;BME280;45815;52.334;5.024;2023-07-09T03:27:39;101760.22;;;22.30;100.00
58955;BME280;45815;52.334;5.024;2023-07-09T03:30:05;101753.13;;;22.29;100.00
58955;BME280;45815;52.334;5.024;2023-07-09T03:32:30;101756.69;;;22.28;100.00
58955;BME280;45815;52.334;5.024;2023-07-09T03:34:56;101757.56;;;22.28;100.00
58955;BME280;45815;52.334;5.024;2023-07-09T03:37:21;101743.31;;;22.29;100.00
58955;BME280;45815;52.334;5.024;2023-07-09T03:39:47;101738.91;;;22.24;100.00
58955;BME280;45815;52.334;5.024;2023-07-09T03:42:12;101749.47;;;22.33;100.00
58955;BME280;45815;52.334;5.024;2023-07-09T03:44:37;101759.31;;;22.32;100.00
58955;BME280;45815;52.334;5.024;2023-07-09T03:47:03;101758.44;;;22.32;100.00
58955;BME280;45815;52.334;5.024;2023-07-09T03:49:29;101750.41;;;22.30;100.00
58955;BME280;45815;52.334;5.024;2023-07-09T03:51:55;101763.78;;;22.32;100.00
58955;BME280;45815;52.334;5.024;2023-07-09T03:54:20;101768.25;;;22.31;100.00
58955;BME280;45815;52.334;5.024;2023-07-09T03:56:45;101770.00;;;22.32;100.00
58955;BME280;45815;52.334;5.024;2023-07-09T03:59:11;101767.31;;;22.34;100.00
58955;BME280;45815;52.334;5.024;2023-07-09T04:01:37;101765.50;;;22.34;100.00
58955;BME280;45815;52.334;5.024;2023-07-09T04:04:02;101766.38;;;22.37;100.00
58955;BME280;45815;52.334;5.024;2023-07-09T04:06:28;101764.59;;;22.37;100.00
58955;BME280;45815;52.334;5.024;2023-07-09T04:08:54;101777.03;;;22.38;100.00
58955;BME280;45815;52.334;5.024;2023-07-09T04:11:19;101772.59;;;22.37;100.00
58955;BME280;45815;52.334;5.024;2023-07-09T04:13:45;101776.16;;;22.38;100.00
58955;BME280;45815;52.334;5.024;2023-07-09T04:16:11;101775.28;;;22.36;100.00
58955;BME280;45815;52.334;5.024;2023-07-09T04:18:36;101780.56;;;22.40;100.00
58955;BME280;45815;52.334;5.024;2023-07-09T04:21:04;101761.03;;;22.37;100.00
58955;BME280;45815;52.334;5.024;2023-07-09T04:23:32;101783.16;;;22.46;100.00
58955;BME280;45815;52.334;5.024;2023-07-09T04:25:58;101790.28;;;22.47;100.00
58955;BME280;45815;52.334;5.024;2023-07-09T04:28:23;101790.28;;;22.47;100.00
58955;BME280;45815;52.334;5.024;2023-07-09T04:30:50;101790.28;;;22.47;100.00
58955;BME280;45815;52.334;5.024;2023-07-09T04:33:18;101789.31;;;22.51;100.00
58955;BME280;45815;52.334;5.024;2023-07-09T04:35:45;101788.38;;;22.55;100.00
58955;BME280;45815;52.334;5.024;2023-07-09T04:38:11;101793.66;;;22.59;100.00
58955;BME280;45815;52.334;5.024;2023-07-09T04:40:37;101799.09;;;22.55;100.00
58955;BME280;45815;52.334;5.024;2023-07-09T04:43:02;101791.94;;;22.54;100.00
58955;BME280;45815;52.334;5.024;2023-07-09T04:45:28;101788.38;;;22.55;100.00
58955;BME280;45815;52.334;5.024;2023-07-09T04:47:53;101789.25;;;22.56;100.00
58955;BME280;45815;52.334;5.024;2023-07-09T04:50:19;101788.31;;;22.59;100.00
58955;BME280;45815;52.334;5.024;2023-07-09T04:52:44;101790.03;;;22.63;100.00
58955;BME280;45815;52.334;5.024;2023-07-09T04:55:09;101794.47;;;22.65;100.00
58955;BME280;45815;52.334;5.024;2023-07-09T04:57:36;101793.53;;;22.66;100.00
58955;BME280;45815;52.334;5.024;2023-07-09T05:00:03;101786.44;;;22.67;100.00
58955;BME280;45815;52.334;5.024;2023-07-09T05:02:30;101784.63;;;22.66;100.00
58955;BME280;45815;52.334;5.024;2023-07-09T05:04:56;101788.94;;;22.76;100.00
58955;BME280;45815;52.334;5.024;2023-07-09T05:07:21;101789.81;;;22.78;100.00
58955;BME280;45815;52.334;5.024;2023-07-09T05:09:47;101790.63;;;22.83;100.00
58955;BME280;45815;52.334;5.024;2023-07-09T05:12:13;101784.25;;;22.90;100.00
58955;BME280;45815;52.334;5.024;2023-07-09T05:14:39;101780.56;;;22.96;100.00
58955;BME280;45815;52.334;5.024;2023-07-09T05:17:05;101775.16;;;23.01;100.00
58955;BME280;45815;52.334;5.024;2023-07-09T05:19:31;101784.00;;;23.06;100.00
58955;BME280;45815;52.334;5.024;2023-07-09T05:21:57;101781.22;;;23.10;100.00
58955;BME280;45815;52.334;5.024;2023-07-09T05:24:22;101780.22;;;23.17;100.00
58955;BME280;45815;52.334;5.024;2023-07-09T05:26:48;101778.31;;;23.24;100.00
58955;BME280;45815;52.334;5.024;2023-07-09T05:29:13;101777.25;;;23.33;100.00
58955;BME280;45815;52.334;5.024;2023-07-09T05:31:38;101775.28;;;23.41;100.00
58955;BME280;45815;52.334;5.024;2023-07-09T05:34:04;101772.44;;;23.50;100.00
58955;BME280;45815;52.334;5.024;2023-07-09T05:36:30;101772.34;;;23.55;100.00
58955;BME280;45815;52.334;5.024;2023-07-09T05:38:56;101763.44;;;23.53;100.00
58955;BME280;45815;52.334;5.024;2023-07-09T05:41:21;101767.66;;;23.66;100.00
58955;BME280;45815;52.334;5.024;2023-07-09T05:43:49;101765.75;;;23.74;100.00
58955;BME280;45815;52.334;5.024;2023-07-09T05:46:15;101770.97;;;23.80;100.00
58955;BME280;45815;52.334;5.024;2023-07-09T05:48:40;101776.19;;;23.88;100.00
58955;BME280;45815;52.334;5.024;2023-07-09T05:51:06;101778.81;;;23.90;100.00
58955;BME280;45815;52.334;5.024;2023-07-09T05:53:32;101775.06;;;23.97;100.00
58955;BME280;45815;52.334;5.024;2023-07-09T05:55:58;101779.44;;;24.02;100.00
58955;BME280;45815;52.334;5.024;2023-07-09T05:58:24;101779.34;;;24.07;100.00
58955;BME280;45815;52.334;5.024;2023-07-09T06:00:53;101778.31;;;24.11;100.00
58955;BME280;45815;52.334;5.024;2023-07-09T06:03:24;101779.94;;;24.18;100.00
58955;BME280;45815;52.334;5.024;2023-07-09T06:05:50;101761.41;;;24.09;100.00
58955;BME280;45815;52.334;5.024;2023-07-09T06:08:16;101740.97;;;24.02;100.00
58955;BME280;45815;52.334;5.024;2023-07-09T06:10:57;101783.44;;;24.23;100.00
58955;BME280;45815;52.334;5.024;2023-07-09T06:13:24;101786.81;;;24.32;100.00
58955;BME280;45815;52.334;5.024;2023-07-09T06:15:51;101788.50;;;24.36;100.00
58955;BME280;45815;52.334;5.024;2023-07-09T06:18:19;101788.50;;;24.36;100.00
58955;BME280;45815;52.334;5.024;2023-07-09T06:20:53;101797.25;;;24.44;100.00
58955;BME280;45815;52.334;5.024;2023-07-09T06:23:19;101804.34;;;24.48;100.00
58955;BME280;45815;52.334;5.024;2023-07-09T06:25:45;101815.84;;;24.53;100.00
58955;BME280;45815;52.334;5.024;2023-07-09T06:28:18;101802.59;;;24.46;100.00
58955;BME280;45815;52.334;5.024;2023-07-09T06:30:44;101820.16;;;24.60;100.00
58955;BME280;45815;52.334;5.024;2023-07-09T06:33:11;101820.91;;;24.67;100.00
58955;BME280;45815;52.334;5.024;2023-07-09T06:35:37;101825.31;;;24.70;100.00
58955;BME280;45815;52.334;5.024;2023-07-09T06:38:03;101825.19;;;24.74;100.00
58955;BME280;45815;52.334;5.024;2023-07-09T06:40:29;101816.13;;;24.80;100.00
58955;BME280;45815;52.334;5.024;2023-07-09T06:42:54;101820.47;;;24.84;100.00
58955;BME280;45815;52.334;5.024;2023-07-09T06:45:24;101818.50;;;24.92;100.00
58955;BME280;45815;52.334;5.024;2023-07-09T06:47:50;101820.25;;;24.93;100.00
58955;BME280;45815;52.334;5.024;2023-07-09T06:50:15;101814.75;;;24.99;100.00
58955;BME280;45815;52.334;5.024;2023-07-09T06:52:41;101825.41;;;25.02;100.00
58955;BME280;45815;52.334;5.024;2023-07-09T06:55:12;101825.13;;;25.13;100.00
58955;BME280;45815;52.334;5.024;2023-07-09T06:57:38;101823.13;;;25.21;100.00
58955;BME280;45815;52.334;5.024;2023-07-09T07:00:04;101826.56;;;25.28;100.00
58955;BME280;45815;52.334;5.024;2023-07-09T07:02:29;101827.25;;;25.36;100.00
58955;BME280;45815;52.334;5.024;2023-07-09T07:04:55;101828.03;;;25.40;100.00
58955;BME280;45815;52.334;5.024;2023-07-09T07:07:21;101810.16;;;25.39;100.00
58955;BME280;45815;52.334;5.024;2023-07-09T07:09:46;101825.06;;;25.51;100.00
58955;BME280;45815;52.334;5.024;2023-07-09T07:12:26;101824.97;;;25.54;100.00
58955;BME280;45815;52.334;5.024;2023-07-09T07:14:53;101817.00;;;25.51;100.00
58955;BME280;45815;52.334;5.024;2023-07-09T07:17:19;101833.63;;;25.65;100.00
58955;BME280;45815;52.334;5.024;2023-07-09T07:19:44;101842.44;;;25.70;100.00
58955;BME280;45815;52.334;5.024;2023-07-09T07:22:10;101847.81;;;25.70;100.00
58955;BME280;45815;52.334;5.024;2023-07-09T07:24:38;101847.75;;;25.73;100.00
58955;BME280;45815;52.334;5.024;2023-07-09T07:27:04;101844.13;;;25.74;100.00
58955;BME280;45815;52.334;5.024;2023-07-09T07:29:30;101847.66;;;25.76;100.00
58955;BME280;45815;52.334;5.024;2023-07-09T07:31:55;101850.25;;;25.79;100.00
58955;BME280;45815;52.334;5.024;2023-07-09T07:34:21;101845.88;;;25.75;100.00
58955;BME280;45815;52.334;5.024;2023-07-09T07:36:49;101833.53;;;25.68;100.00
58955;BME280;45815;52.334;5.024;2023-07-09T07:39:14;101840.50;;;25.75;100.00
58955;BME280;45815;52.334;5.024;2023-07-09T07:41:40;101834.38;;;25.70;100.00
58955;BME280;45815;52.334;5.024;2023-07-09T07:44:06;101846.69;;;25.79;100.00
58955;BME280;45815;52.334;5.024;2023-07-09T07:46:33;101836.69;;;25.82;100.00
58955;BME280;45815;52.334;5.024;2023-07-09T07:48:59;101850.09;;;25.84;100.00
58955;BME280;45815;52.334;5.024;2023-07-09T07:51:28;101834.00;;;25.82;100.00
58955;BME280;45815;52.334;5.024;2023-07-09T07:53:53;101843.13;;;25.78;100.00
58955;BME280;45815;52.334;5.024;2023-07-09T07:56:19;101835.03;;;25.78;100.00
58955;BME280;45815;52.334;5.024;2023-07-09T07:58:44;101836.69;;;25.82;100.00
58955;BME280;45815;52.334;5.024;2023-07-09T08:01:10;101836.56;;;25.88;100.00
58955;BME280;45815;52.334;5.024;2023-07-09T08:03:35;101834.84;;;25.84;100.00
58955;BME280;45815;52.334;5.024;2023-07-09T08:06:01;101829.34;;;25.90;100.00
58955;BME280;45815;52.334;5.024;2023-07-09T08:08:29;101837.88;;;26.05;100.00
58955;BME280;45815;52.334;5.024;2023-07-09T08:11:05;101827.56;;;26.19;100.00
58955;BME280;45815;52.334;5.024;2023-07-09T08:13:36;101829.69;;;26.38;100.00
58955;BME280;45815;52.334;5.024;2023-07-09T08:16:02;101834.78;;;26.47;100.00
58955;BME280;45815;52.334;5.024;2023-07-09T08:18:27;101830.81;;;26.60;100.00
58955;BME280;45815;52.334;5.024;2023-07-09T08:20:53;101833.22;;;26.69;100.00
58955;BME280;45815;52.334;5.024;2023-07-09T08:23:18;101827.63;;;26.76;100.00
58955;BME280;45815;52.334;5.024;2023-07-09T08:25:50;101831.56;;;26.92;100.00
58955;BME280;45815;52.334;5.024;2023-07-09T08:28:17;101813.22;;;27.03;100.00
58955;BME280;45815;52.334;5.024;2023-07-09T08:30:42;101832.50;;;27.17;100.00
58955;BME280;45815;52.334;5.024;2023-07-09T08:33:08;101826.78;;;27.28;100.00
58955;BME280;45815;52.334;5.024;2023-07-09T08:35:33;101821.72;;;27.44;100.00
58955;BME280;45815;52.334;5.024;2023-07-09T08:37:58;101824.09;;;27.53;100.00
58955;BME280;45815;52.334;5.024;2023-07-09T08:40:24;101826.38;;;27.64;100.00
58955;BME280;45815;52.334;5.024;2023-07-09T08:42:53;101814.25;;;27.76;100.00
58955;BME280;45815;52.334;5.024;2023-07-09T08:45:46;101824.16;;;28.01;100.00
58955;BME280;45815;52.334;5.024;2023-07-09T08:50:50;101820.00;;;28.37;100.00
58955;BME280;45815;52.334;5.024;2023-07-09T08:53:25;101813.19;;;28.51;100.00
58955;BME280;45815;52.334;5.024;2023-07-09T08:55:55;101814.31;;;28.67;100.00
58955;BME280;45815;52.334;5.024;2023-07-09T08:58:29;101806.50;;;28.81;100.00
58955;BME280;45815;52.334;5.024;2023-07-09T09:00:59;101797.81;;;28.95;100.00
58955;BME280;45815;52.334;5.024;2023-07-09T09:05:57;101803.22;;;29.17;100.00
58955;BME280;45815;52.334;5.024;2023-07-09T09:08:33;101811.72;;;29.29;100.00
58955;BME280;45815;52.334;5.024;2023-07-09T09:13:45;101820.84;;;29.46;100.00
58955;BME280;45815;52.334;5.024;2023-07-09T09:16:26;101815.63;;;29.62;100.00
58955;BME280;45815;52.334;5.024;2023-07-09T09:18:57;101810.94;;;29.67;100.00
58955;BME280;45815;52.334;5.024;2023-07-09T09:21:28;101816.41;;;29.85;100.00
58955;BME280;45815;52.334;5.024;2023-07-09T09:23:58;101817.78;;;29.95;100.00
58955;BME280;45815;52.334;5.024;2023-07-09T09:26:33;101806.50;;;30.04;100.00
58955;BME280;45815;52.334;5.024;2023-07-09T09:28:59;101809.72;;;30.13;100.00
58955;BME280;45815;52.334;5.024;2023-07-09T09:31:29;101801.09;;;30.23;100.00
58955;BME280;45815;52.334;5.024;2023-07-09T09:33:55;101800.56;;;30.34;100.00
58955;BME280;45815;52.334;5.024;2023-07-09T09:36:25;101799.03;;;30.47;100.00
58955;BME280;45815;52.334;5.024;2023-07-09T09:38:54;101796.66;;;30.59;100.00
58955;BME280;45815;52.334;5.024;2023-07-09T09:41:23;101806.19;;;30.67;100.00
58955;BME280;45815;52.334;5.024;2023-07-09T09:43:52;101810.34;;;30.75;99.43
58955;BME280;45815;52.334;5.024;2023-07-09T09:46:21;101814.56;;;30.80;100.00
58955;BME280;45815;52.334;5.024;2023-07-09T09:48:49;101826.06;;;30.85;100.00
58955;BME280;45815;52.334;5.024;2023-07-09T09:51:17;101818.34;;;30.95;98.63
58955;BME280;45815;52.334;5.024;2023-07-09T09:53:51;101806.38;;;30.99;97.57
58955;BME280;45815;52.334;5.024;2023-07-09T09:56:23;101810.00;;;31.17;99.36
58955;BME280;45815;52.334;5.024;2023-07-09T09:58:54;101803.53;;;31.20;97.55
58955;BME280;45815;52.334;5.024;2023-07-09T10:01:28;101808.22;;;31.33;97.95
58955;BME280;45815;52.334;5.024;2023-07-09T10:03:58;101815.81;;;31.44;96.35
58955;BME280;45815;52.334;5.024;2023-07-09T10:06:43;101835.72;;;31.45;96.99
58955;BME280;45815;52.334;5.024;2023-07-09T10:12:13;101852.25;;;31.04;99.07
58955;BME280;45815;52.334;5.024;2023-07-09T10:22:43;101846.16;;;30.81;100.00
58955;BME280;45815;52.334;5.024;2023-07-09T10:25:35;101846.03;;;31.02;100.00
58955;BME280;45815;52.334;5.024;2023-07-09T10:30:57;101830.56;;;31.39;100.00
58955;BME280;45815;52.334;5.024;2023-07-09T10:36:30;101818.59;;;31.60;98.00
58955;BME280;45815;52.334;5.024;2023-07-09T10:39:06;101819.44;;;31.78;100.00
58955;BME280;45815;52.334;5.024;2023-07-09T10:41:35;101821.91;;;31.65;100.00
58955;BME280;45815;52.334;5.024;2023-07-09T10:46:32;101824.94;;;31.76;100.00
58955;BME280;45815;52.334;5.024;2023-07-09T10:49:00;101822.34;;;31.91;100.00
58955;BME280;45815;52.334;5.024;2023-07-09T10:54:01;101818.47;;;32.12;100.00
58955;BME280;45815;52.334;5.024;2023-07-09T10:56:31;101797.78;;;32.26;100.00
58955;BME280;45815;52.334;5.024;2023-07-09T11:01:45;101799.78;;;32.06;100.00
58955;BME280;45815;52.334;5.024;2023-07-09T11:04:39;101808.03;;;31.71;100.00
58955;BME280;45815;52.334;5.024;2023-07-09T11:07:17;101818.28;;;31.31;100.00
58955;BME280;45815;52.334;5.024;2023-07-09T11:09:47;101805.34;;;31.02;100.00
58955;BME280;45815;52.334;5.024;2023-07-09T11:12:42;101825.19;;;30.48;100.00
58955;BME280;45815;52.334;5.024;2023-07-09T11:15:16;101813.66;;;30.24;100.00
58955;BME280;45815;52.334;5.024;2023-07-09T11:17:46;101837.38;;;30.19;100.00
58955;BME280;45815;52.334;5.024;2023-07-09T11:20:22;101831.97;;;30.00;100.00
58955;BME280;45815;52.334;5.024;2023-07-09T11:22:54;101823.63;;;30.05;100.00
58955;BME280;45815;52.334;5.024;2023-07-09T11:26:11;101809.13;;;30.25;100.00
58955;BME280;45815;52.334;5.024;2023-07-09T11:28:16;101818.59;;;30.35;100.00
58955;BME280;45815;52.334;5.024;2023-07-09T11:30:54;101797.31;;;30.27;100.00
58955;BME280;45815;52.334;5.024;2023-07-09T11:33:27;101801.75;;;30.47;100.00
58955;BME280;45815;52.334;5.024;2023-07-09T11:36:08;101802.72;;;30.46;100.00
58955;BME280;45815;52.334;5.024;2023-07-09T11:38:43;101804.00;;;30.57;100.00
58955;BME280;45815;52.334;5.024;2023-07-09T11:41:37;101793.44;;;30.50;100.00
58955;BME280;45815;52.334;5.024;2023-07-09T11:44:23;101806.63;;;30.58;100.00
58955;BME280;45815;52.334;5.024;2023-07-09T11:49:25;101826.13;;;30.47;100.00
58955;BME280;45815;52.334;5.024;2023-07-09T11:51:55;101839.47;;;30.33;100.00
58955;BME280;45815;52.334;5.024;2023-07-09T11:54:24;101836.19;;;30.25;100.00
58955;BME280;45815;52.334;5.024;2023-07-09T11:56:58;101826.28;;;30.06;100.00
58955;BME280;45815;52.334;5.024;2023-07-09T11:59:24;101841.75;;;29.84;100.00
58955;BME280;45815;52.334;5.024;2023-07-09T12:01:51;101835.13;;;29.71;100.00
58955;BME280;45815;52.334;5.024;2023-07-09T12:04:21;101845.22;;;29.67;100.00
58955;BME280;45815;52.334;5.024;2023-07-09T12:06:47;101848.38;;;29.77;100.00
58955;BME280;45815;52.334;5.024;2023-07-09T12:09:18;101854.03;;;29.91;100.00
58955;BME280;45815;52.334;5.024;2023-07-09T12:11:49;101852.16;;;29.93;100.00
58955;BME280;45815;52.334;5.024;2023-07-09T12:14:20;101853.19;;;30.09;100.00
58955;BME280;45815;52.334;5.024;2023-07-09T12:16:48;101855.72;;;30.33;100.00
58955;BME280;45815;52.334;5.024;2023-07-09T12:19:21;101864.13;;;30.65;100.00
58955;BME280;45815;52.334;5.024;2023-07-09T12:21:51;101859.97;;;30.94;100.00
58955;BME280;45815;52.334;5.024;2023-07-09T12:24:22;101866.22;;;30.96;100.00
58955;BME280;45815;52.334;5.024;2023-07-09T12:26:52;101862.06;;;30.89;100.00
58955;BME280;45815;52.334;5.024;2023-07-09T12:29:18;101864.88;;;31.05;100.00
58955;BME280;45815;52.334;5.024;2023-07-09T12:31:43;101878.00;;;30.95;100.00
58955;BME280;45815;52.334;5.024;2023-07-09T12:34:12;101873.63;;;30.74;99.90
58955;BME280;45815;52.334;5.024;2023-07-09T12:36:43;101881.94;;;30.52;100.00
58955;BME280;45815;52.334;5.024;2023-07-09T12:39:10;101880.03;;;30.35;100.00
58955;BME280;45815;52.334;5.024;2023-07-09T12:41:42;101872.84;;;30.34;100.00
58955;BME280;45815;52.334;5.024;2023-07-09T12:44:20;101877.38;;;30.33;100.00
58955;BME280;45815;52.334;5.024;2023-07-09T12:46:50;101851.97;;;30.36;100.00
58955;BME280;45815;52.334;5.024;2023-07-09T12:51:44;101851.75;;;30.59;97.63
58955;BME280;45815;52.334;5.024;2023-07-09T12:54:15;101843.22;;;30.86;97.94
58955;BME280;45815;52.334;5.024;2023-07-09T12:56:40;101853.69;;;31.11;97.44
58955;BME280;45815;52.334;5.024;2023-07-09T12:59:21;101850.31;;;31.42;95.98
58955;BME280;45815;52.334;5.024;2023-07-09T13:02:01;101861.34;;;31.72;94.59
58955;BME280;45815;52.334;5.024;2023-07-09T13:04:30;101852.19;;;31.75;93.29
58955;BME280;45815;52.334;5.024;2023-07-09T13:06:56;101884.22;;;31.51;95.98
58955;BME280;45815;52.334;5.024;2023-07-09T13:09:26;101863.66;;;31.28;96.88
58955;BME280;45815;52.334;5.024;2023-07-09T13:11:52;101864.16;;;30.82;95.70
58955;BME280;45815;52.334;5.024;2023-07-09T13:14:25;101854.75;;;30.53;96.05
58955;BME280;45815;52.334;5.024;2023-07-09T13:16:51;101845.56;;;30.18;99.12
58955;BME280;45815;52.334;5.024;2023-07-09T13:19:20;101823.31;;;29.92;98.99
58955;BME280;45815;52.334;5.024;2023-07-09T13:21:46;101828.56;;;29.76;100.00
58955;BME280;45815;52.334;5.024;2023-07-09T13:24:22;101835.50;;;29.61;100.00
58955;BME280;45815;52.334;5.024;2023-07-09T13:26:48;101841.50;;;29.07;100.00
58955;BME280;45815;52.334;5.024;2023-07-09T13:29:15;101860.06;;;29.16;100.00
58955;BME280;45815;52.334;5.024;2023-07-09T13:31:46;101877.03;;;29.19;100.00
58955;BME280;45815;52.334;5.024;2023-07-09T13:34:22;101885.31;;;28.93;100.00